sensor_id;sensor_type;location;lat;lon;timestamp;pressure;altitude;pressure_sealevel;temperature;humidity
20889;BME280;10604;51.976;7.594;2022-12-29T00:01:14;99526.66;;;10.50;100.00
20889;BME280;10604;51.976;7.594;2022-12-29T00:03:39;99532.41;;;10.58;100.00
20889;BME280;10604;51.976;7.594;2022-12-29T00:06:05;99527.41;;;10.52;100.00
20889;BME280;10604;51.976;7.594;2022-12-29T00:08:30;99513.16;;;10.56;100.00
20889;BME280;10604;51.976;7.594;2022-12-29T00:11:25;99514.88;;;10.57;100.00
20889;BME280;10604;51.976;7.594;2022-12-29T00:13:51;99519.59;;;10.68;100.00
20889;BME280;10604;51.976;7.594;2022-12-29T00:16:36;99524.81;;;10.70;100.00
20889;BME280;10604;51.976;7.594;2022-12-29T00:19:02;99505.41;;;10.71;100.00
20889;BME280;10604;51.976;7.594;2022-12-29T00:21:28;99498.28;;;10.73;100.00
20889;BME280;10604;51.976;7.594;2022-12-29T00:24:20;99512.03;;;10.79;100.00
20889;BME280;10604;51.976;7.594;2022-12-29T00:29:48;99493.03;;;10.73;100.00
20889;BME280;10604;51.976;7.594;2022-12-29T00:32:32;99495.41;;;10.77;100.00
20889;BME280;10604;51.976;7.594;2022-12-29T00:35:43;99482.47;;;10.73;100.00
20889;BME280;10604;51.976;7.594;2022-12-29T00:38:10;99472.22;;;10.67;100.00
20889;BME280;10604;51.976;7.594;2022-12-29T00:40:55;99473.59;;;10.74;100.00
20889;BME280;10604;51.976;7.594;2022-12-29T00:43:39;99493.69;;;10.76;100.00
20889;BME280;10604;51.976;7.594;2022-12-29T00:46:23;99477.03;;;10.76;100.00
20889;BME280;10604;51.976;7.594;2022-12-29T00:48:48;99477.19;;;10.73;100.00
20889;BME280;10604;51.976;7.594;2022-12-29T00:51:32;99478.09;;;10.89;100.00
20889;BME280;10604;51.976;7.594;2022-12-29T00:53:57;99477.00;;;10.93;100.00
20889;BME280;10604;51.976;7.594;2022-12-29T00:56:23;99465.63;;;10.92;100.00
20889;BME280;10604;51.976;7.594;2022-12-29T00:58:48;99461.06;;;10.79;100.00
20889;BME280;10604;51.976;7.594;2022-12-29T01:01:13;99474.69;;;10.87;100.00
20889;BME280;10604;51.976;7.594;2022-12-29T01:03:39;99464.28;;;10.84;100.00
20889;BME280;10604;51.976;7.594;2022-12-29T01:06:07;99462.75;;;10.80;100.00
20889;BME280;10604;51.976;7.594;2022-12-29T01:08:33;99465.16;;;10.84;100.00
20889;BME280;10604;51.976;7.594;2022-12-29T01:11:07;99462.75;;;10.80;100.00
20889;BME280;10604;51.976;7.594;2022-12-29T01:13:34;99459.50;;;10.75;100.00
20889;BME280;10604;51.976;7.594;2022-12-29T01:15:59;99454.06;;;10.60;100.00
20889;BME280;10604;51.976;7.594;2022-12-29T01:18:25;99454.84;;;10.63;100.00
20889;BME280;10604;51.976;7.594;2022-12-29T01:20:51;99452.34;;;10.59;100.00
20889;BME280;10604;51.976;7.594;2022-12-29T01:23:16;99434.06;;;10.56;100.00
20889;BME280;10604;51.976;7.594;2022-12-29T01:25:42;99433.91;;;10.59;100.00
20889;BME280;10604;51.976;7.594;2022-12-29T01:28:07;99441.81;;;10.59;100.00
20889;BME280;10604;51.976;7.594;2022-12-29T01:30:34;99435.78;;;10.57;100.00
20889;BME280;10604;51.976;7.594;2022-12-29T01:32:59;99431.50;;;10.55;100.00
20889;BME280;10604;51.976;7.594;2022-12-29T01:35:25;99432.22;;;10.58;100.00
20889;BME280;10604;51.976;7.594;2022-12-29T01:37:50;99420.25;;;10.69;100.00
20889;BME280;10604;51.976;7.594;2022-12-29T01:40:16;99426.63;;;10.65;100.00
20889;BME280;10604;51.976;7.594;2022-12-29T01:42:41;99421.19;;;10.68;100.00
20889;BME280;10604;51.976;7.594;2022-12-29T01:45:16;99420.56;;;10.63;100.00
20889;BME280;10604;51.976;7.594;2022-12-29T01:47:57;99412.53;;;10.66;100.00
20889;BME280;10604;51.976;7.594;2022-12-29T01:50:46;99412.66;;;10.63;100.00
20889;BME280;10604;51.976;7.594;2022-12-29T01:53:21;99400.09;;;10.68;100.00
20889;BME280;10604;51.976;7.594;2022-12-29T01:55:52;99404.16;;;10.57;100.00
20889;BME280;10604;51.976;7.594;2022-12-29T01:58:22;99405.53;;;10.65;100.00
20889;BME280;10604;51.976;7.594;2022-12-29T02:00:49;99400.59;;;10.58;100.00
20889;BME280;10604;51.976;7.594;2022-12-29T02:03:16;99405.75;;;10.60;100.00
20889;BME280;10604;51.976;7.594;2022-12-29T02:06:02;99395.66;;;10.68;100.00
20889;BME280;10604;51.976;7.594;2022-12-29T02:08:29;99408.72;;;10.71;100.00
20889;BME280;10604;51.976;7.594;2022-12-29T02:10:56;99394.34;;;10.77;100.00
20889;BME280;10604;51.976;7.594;2022-12-29T02:13:24;99392.47;;;10.79;100.00
20889;BME280;10604;51.976;7.594;2022-12-29T02:24:29;99395.56;;;10.87;100.00
20889;BME280;10604;51.976;7.594;2022-12-29T02:32:37;99386.69;;;10.88;100.00
20889;BME280;10604;51.976;7.594;2022-12-29T02:37:48;99384.19;;;11.02;100.00
20889;BME280;10604;51.976;7.594;2022-12-29T02:40:48;99375.66;;;10.97;100.00
20889;BME280;10604;51.976;7.594;2022-12-29T02:49:13;99379.97;;;11.15;100.00
20889;BME280;10604;51.976;7.594;2022-12-29T02:52:00;99374.34;;;11.21;100.00
20889;BME280;10604;51.976;7.594;2022-12-29T02:54:26;99367.38;;;11.36;100.00
20889;BME280;10604;51.976;7.594;2022-12-29T02:57:30;99372.13;;;11.45;99.10
20889;BME280;10604;51.976;7.594;2022-12-29T03:00:10;99360.91;;;11.42;98.15
20889;BME280;10604;51.976;7.594;2022-12-29T03:16:04;99358.31;;;11.71;94.19
20889;BME280;10604;51.976;7.594;2022-12-29T03:24:15;99330.53;;;11.80;92.38
20889;BME280;10604;51.976;7.594;2022-12-29T03:26:43;99343.59;;;11.83;92.17
20889;BME280;10604;51.976;7.594;2022-12-29T03:29:11;99350.66;;;11.83;91.59
20889;BME280;10604;51.976;7.594;2022-12-29T03:31:38;99346.22;;;11.83;91.85
20889;BME280;10604;51.976;7.594;2022-12-29T03:34:05;99337.84;;;11.91;90.99
20889;BME280;10604;51.976;7.594;2022-12-29T03:36:49;99324.72;;;11.89;90.66
20889;BME280;10604;51.976;7.594;2022-12-29T03:39:20;99327.94;;;11.94;89.44
20889;BME280;10604;51.976;7.594;2022-12-29T03:41:50;99332.28;;;11.95;89.56
20889;BME280;10604;51.976;7.594;2022-12-29T03:44:17;99345.34;;;11.98;89.19
20889;BME280;10604;51.976;7.594;2022-12-29T03:46:42;99329.84;;;11.92;89.21
20889;BME280;10604;51.976;7.594;2022-12-29T03:49:08;99334.94;;;11.95;88.83
20889;BME280;10604;51.976;7.594;2022-12-29T03:51:33;99324.91;;;11.86;89.16
20889;BME280;10604;51.976;7.594;2022-12-29T03:53:58;99333.66;;;11.87;89.29
20889;BME280;10604;51.976;7.594;2022-12-29T03:56:24;99338.50;;;11.94;89.37
20889;BME280;10604;51.976;7.594;2022-12-29T03:58:49;99333.22;;;11.94;88.78
20889;BME280;10604;51.976;7.594;2022-12-29T04:01:14;99327.94;;;11.94;88.49
20889;BME280;10604;51.976;7.594;2022-12-29T04:03:40;99327.94;;;11.94;88.87
20889;BME280;10604;51.976;7.594;2022-12-29T04:06:05;99324.56;;;11.92;88.93
20889;BME280;10604;51.976;7.594;2022-12-29T04:08:31;99329.28;;;12.01;89.04
20889;BME280;10604;51.976;7.594;2022-12-29T04:10:56;99317.72;;;11.88;89.51
20889;BME280;10604;51.976;7.594;2022-12-29T04:13:21;99318.47;;;11.76;90.57
20889;BME280;10604;51.976;7.594;2022-12-29T04:15:47;99327.66;;;11.69;92.07
20889;BME280;10604;51.976;7.594;2022-12-29T04:18:13;99317.78;;;11.57;92.80
20889;BME280;10604;51.976;7.594;2022-12-29T04:20:38;99316.59;;;11.47;94.33
20889;BME280;10604;51.976;7.594;2022-12-29T04:23:23;99324.72;;;11.44;94.63
20889;BME280;10604;51.976;7.594;2022-12-29T04:25:48;99322.56;;;11.34;95.86
20889;BME280;10604;51.976;7.594;2022-12-29T04:28:14;99326.00;;;11.36;96.61
20889;BME280;10604;51.976;7.594;2022-12-29T04:30:40;99321.22;;;11.27;98.23
20889;BME280;10604;51.976;7.594;2022-12-29T04:33:06;99329.06;;;11.13;99.80
20889;BME280;10604;51.976;7.594;2022-12-29T04:35:31;99334.47;;;11.10;100.00
20889;BME280;10604;51.976;7.594;2022-12-29T04:37:57;99322.22;;;11.09;100.00
20889;BME280;10604;51.976;7.594;2022-12-29T04:40:22;99325.81;;;11.08;100.00
20889;BME280;10604;51.976;7.594;2022-12-29T04:42:48;99325.47;;;10.98;100.00
20889;BME280;10604;51.976;7.594;2022-12-29T04:45:14;99331.41;;;11.02;100.00
20889;BME280;10604;51.976;7.594;2022-12-29T04:47:39;99322.91;;;10.97;100.00
20889;BME280;10604;51.976;7.594;2022-12-29T04:50:05;99339.91;;;10.91;100.00
20889;BME280;10604;51.976;7.594;2022-12-29T04:52:30;99316.59;;;10.84;100.00
20889;BME280;10604;51.976;7.594;2022-12-29T04:54:56;99309.25;;;10.73;100.00
20889;BME280;10604;51.976;7.594;2022-12-29T04:57:21;99320.50;;;10.77;100.00
20889;BME280;10604;51.976;7.594;2022-12-29T04:59:46;99302.97;;;10.76;100.00
20889;BME280;10604;51.976;7.594;2022-12-29T05:02:12;99307.66;;;10.71;100.00
20889;BME280;10604;51.976;7.594;2022-12-29T05:04:37;99304.81;;;10.74;100.00
20889;BME280;10604;51.976;7.594;2022-12-29T05:07:02;99294.28;;;10.74;100.00
20889;BME280;10604;51.976;7.594;2022-12-29T05:09:28;99297.53;;;10.79;100.00
20889;BME280;10604;51.976;7.594;2022-12-29T05:11:54;99308.69;;;10.84;100.00
20889;BME280;10604;51.976;7.594;2022-12-29T05:14:20;99302.97;;;10.76;100.00
20889;BME280;10604;51.976;7.594;2022-12-29T05:16:46;99312.09;;;10.86;100.00
20889;BME280;10604;51.976;7.594;2022-12-29T05:19:11;99340.94;;;10.89;100.00
20889;BME280;10604;51.976;7.594;2022-12-29T05:21:36;99374.69;;;10.82;100.00
20889;BME280;10604;51.976;7.594;2022-12-29T05:24:02;99362.13;;;10.54;100.00
20889;BME280;10604;51.976;7.594;2022-12-29T05:26:27;99345.91;;;10.45;100.00
20889;BME280;10604;51.976;7.594;2022-12-29T05:28:52;99357.94;;;10.33;100.00
20889;BME280;10604;51.976;7.594;2022-12-29T05:31:18;99342.91;;;10.18;100.00
20889;BME280;10604;51.976;7.594;2022-12-29T05:33:43;99340.91;;;10.23;100.00
20889;BME280;10604;51.976;7.594;2022-12-29T05:36:13;99349.91;;;10.19;100.00
20889;BME280;10604;51.976;7.594;2022-12-29T05:38:39;99340.31;;;10.16;100.00
20889;BME280;10604;51.976;7.594;2022-12-29T05:41:04;99348.47;;;10.12;100.00
20889;BME280;10604;51.976;7.594;2022-12-29T05:43:30;99354.38;;;10.17;100.00
20889;BME280;10604;51.976;7.594;2022-12-29T05:45:56;99366.06;;;10.11;100.00
20889;BME280;10604;51.976;7.594;2022-12-29T05:48:22;99371.56;;;10.07;100.00
20889;BME280;10604;51.976;7.594;2022-12-29T05:50:48;99368.16;;;10.05;100.00
20889;BME280;10604;51.976;7.594;2022-12-29T05:53:14;99355.78;;;10.07;100.00
20889;BME280;10604;51.976;7.594;2022-12-29T05:55:39;99361.03;;;10.07;100.00
20889;BME280;10604;51.976;7.594;2022-12-29T05:58:04;99347.22;;;10.02;100.00
20889;BME280;10604;51.976;7.594;2022-12-29T06:00:30;99368.28;;;10.02;100.00
20889;BME280;10604;51.976;7.594;2022-12-29T06:02:55;99355.91;;;10.04;100.00
20889;BME280;10604;51.976;7.594;2022-12-29T06:05:20;99348.19;;;10.01;100.00
20889;BME280;10604;51.976;7.594;2022-12-29T06:07:46;99344.53;;;10.03;100.00
20889;BME280;10604;51.976;7.594;2022-12-29T06:10:11;99349.97;;;10.00;100.00
20889;BME280;10604;51.976;7.594;2022-12-29T06:12:37;99358.53;;;10.04;100.00
20889;BME280;10604;51.976;7.594;2022-12-29T06:15:03;99364.59;;;10.06;100.00
20889;BME280;10604;51.976;7.594;2022-12-29T06:17:28;99375.44;;;10.00;100.00
20889;BME280;10604;51.976;7.594;2022-12-29T06:19:53;99389.66;;;9.96;100.00
20889;BME280;10604;51.976;7.594;2022-12-29T06:22:19;99383.84;;;9.89;100.00
20889;BME280;10604;51.976;7.594;2022-12-29T06:24:44;99380.84;;;9.97;100.00
20889;BME280;10604;51.976;7.594;2022-12-29T06:27:09;99393.41;;;9.92;100.00
20889;BME280;10604;51.976;7.594;2022-12-29T06:29:34;99388.13;;;9.92;100.00
20889;BME280;10604;51.976;7.594;2022-12-29T06:32:03;99380.72;;;10.00;100.00
20889;BME280;10604;51.976;7.594;2022-12-29T06:34:28;99389.28;;;9.86;100.00
20889;BME280;10604;51.976;7.594;2022-12-29T06:36:54;99384.56;;;9.93;100.00
20889;BME280;10604;51.976;7.594;2022-12-29T06:39:19;99392.69;;;9.88;100.00
20889;BME280;10604;51.976;7.594;2022-12-29T06:41:44;99412.47;;;9.97;100.00
20889;BME280;10604;51.976;7.594;2022-12-29T06:44:10;99403.22;;;9.88;100.00
20889;BME280;10604;51.976;7.594;2022-12-29T06:46:35;99423.44;;;9.88;100.00
20889;BME280;10604;51.976;7.594;2022-12-29T06:49:01;99413.84;;;9.87;100.00
20889;BME280;10604;51.976;7.594;2022-12-29T06:51:26;99423.16;;;9.94;100.00
20889;BME280;10604;51.976;7.594;2022-12-29T06:53:51;99423.59;;;9.85;100.00
20889;BME280;10604;51.976;7.594;2022-12-29T06:56:16;99423.59;;;9.85;100.00
20889;BME280;10604;51.976;7.594;2022-12-29T06:58:42;99420.34;;;9.79;100.00
20889;BME280;10604;51.976;7.594;2022-12-29T07:01:07;99423.59;;;9.85;100.00
20889;BME280;10604;51.976;7.594;2022-12-29T07:03:32;99426.53;;;9.96;100.00
20889;BME280;10604;51.976;7.594;2022-12-29T07:05:58;99427.66;;;10.09;98.28
20889;BME280;10604;51.976;7.594;2022-12-29T07:08:24;99426.91;;;10.07;97.63
20889;BME280;10604;51.976;7.594;2022-12-29T07:10:49;99425.81;;;10.11;97.43
20889;BME280;10604;51.976;7.594;2022-12-29T07:13:14;99421.63;;;10.07;97.31
20889;BME280;10604;51.976;7.594;2022-12-29T07:15:40;99421.28;;;9.96;98.15
20889;BME280;10604;51.976;7.594;2022-12-29T07:18:05;99418.81;;;9.93;97.58
20889;BME280;10604;51.976;7.594;2022-12-29T07:20:31;99414.16;;;9.98;97.48
20889;BME280;10604;51.976;7.594;2022-12-29T07:22:57;99421.75;;;10.04;96.72
20889;BME280;10604;51.976;7.594;2022-12-29T07:25:23;99420.47;;;10.12;96.15
20889;BME280;10604;51.976;7.594;2022-12-29T07:27:49;99436.34;;;10.11;96.13
20889;BME280;10604;51.976;7.594;2022-12-29T07:30:14;99443.44;;;10.09;95.75
20889;BME280;10604;51.976;7.594;2022-12-29T07:32:40;99449.75;;;10.06;95.82
20889;BME280;10604;51.976;7.594;2022-12-29T07:35:06;99440.19;;;10.04;95.76
20889;BME280;10604;51.976;7.594;2022-12-29T07:37:32;99448.03;;;10.05;95.69
20889;BME280;10604;51.976;7.594;2022-12-29T07:39:57;99446.09;;;10.09;94.65
20889;BME280;10604;51.976;7.594;2022-12-29T07:42:22;99455.56;;;10.13;94.81
20889;BME280;10604;51.976;7.594;2022-12-29T07:44:48;99460.97;;;10.10;94.39
20889;BME280;10604;51.976;7.594;2022-12-29T07:47:13;99458.84;;;10.18;92.90
20889;BME280;10604;51.976;7.594;2022-12-29T07:49:39;99459.81;;;10.34;92.12
20889;BME280;10604;51.976;7.594;2022-12-29T07:52:04;99461.91;;;10.28;91.90
20889;BME280;10604;51.976;7.594;2022-12-29T07:54:29;99473.81;;;10.17;93.46
20889;BME280;10604;51.976;7.594;2022-12-29T07:56:54;99471.19;;;10.16;93.45
20889;BME280;10604;51.976;7.594;2022-12-29T07:59:20;99477.44;;;10.15;93.20
20889;BME280;10604;51.976;7.594;2022-12-29T08:01:45;99474.34;;;10.24;92.78
20889;BME280;10604;51.976;7.594;2022-12-29T08:04:11;99481.34;;;10.25;92.71
20889;BME280;10604;51.976;7.594;2022-12-29T08:06:36;99481.34;;;10.25;92.07
20889;BME280;10604;51.976;7.594;2022-12-29T08:09:03;99462.09;;;10.23;92.23
20889;BME280;10604;51.976;7.594;2022-12-29T08:11:29;99463.81;;;10.24;92.00
20889;BME280;10604;51.976;7.594;2022-12-29T08:13:54;99472.06;;;10.35;91.01
20889;BME280;10604;51.976;7.594;2022-12-29T08:16:19;99474.56;;;10.55;89.94
20889;BME280;10604;51.976;7.594;2022-12-29T08:18:45;99481.19;;;10.45;90.05
20889;BME280;10604;51.976;7.594;2022-12-29T08:21:10;99491.75;;;10.63;87.99
20889;BME280;10604;51.976;7.594;2022-12-29T08:23:36;99487.75;;;10.73;86.61
20889;BME280;10604;51.976;7.594;2022-12-29T08:26:03;99475.94;;;10.63;87.53
20889;BME280;10604;51.976;7.594;2022-12-29T08:28:30;99479.69;;;10.58;87.27
20889;BME280;10604;51.976;7.594;2022-12-29T08:31:02;99474.09;;;10.65;85.24
20889;BME280;10604;51.976;7.594;2022-12-29T08:33:28;99490.22;;;10.58;85.78
20889;BME280;10604;51.976;7.594;2022-12-29T08:35:59;99488.28;;;10.62;85.18
20889;BME280;10604;51.976;7.594;2022-12-29T08:38:27;99477.03;;;10.58;84.80
20889;BME280;10604;51.976;7.594;2022-12-29T08:40:52;99484.47;;;10.68;83.46
20889;BME280;10604;51.976;7.594;2022-12-29T08:43:18;99485.72;;;10.78;82.25
20889;BME280;10604;51.976;7.594;2022-12-29T08:45:43;99489.41;;;10.74;83.11
20889;BME280;10604;51.976;7.594;2022-12-29T08:48:08;99500.06;;;10.89;82.50
20889;BME280;10604;51.976;7.594;2022-12-29T08:50:34;99509.44;;;10.95;80.77
20889;BME280;10604;51.976;7.594;2022-12-29T08:52:59;99527.75;;;11.15;79.28
20889;BME280;10604;51.976;7.594;2022-12-29T08:55:25;99523.47;;;11.13;80.00
20889;BME280;10604;51.976;7.594;2022-12-29T08:57:50;99525.25;;;10.95;81.58
20889;BME280;10604;51.976;7.594;2022-12-29T09:00:16;99519.06;;;10.96;81.01
20889;BME280;10604;51.976;7.594;2022-12-29T09:02:41;99518.34;;;11.10;79.78
20889;BME280;10604;51.976;7.594;2022-12-29T09:05:07;99512.59;;;11.19;78.46
20889;BME280;10604;51.976;7.594;2022-12-29T09:07:33;99513.06;;;11.10;79.71
20889;BME280;10604;51.976;7.594;2022-12-29T09:09:58;99513.31;;;11.05;78.09
20889;BME280;10604;51.976;7.594;2022-12-29T09:12:23;99503.34;;;11.10;78.04
20889;BME280;10604;51.976;7.594;2022-12-29T09:14:49;99507.22;;;11.20;76.12
20889;BME280;10604;51.976;7.594;2022-12-29T09:17:14;99508.75;;;11.24;75.44
20889;BME280;10604;51.976;7.594;2022-12-29T09:19:58;99517.66;;;11.06;76.17
20889;BME280;10604;51.976;7.594;2022-12-29T09:22:23;99512.19;;;11.09;75.51
20889;BME280;10604;51.976;7.594;2022-12-29T09:24:49;99515.81;;;11.08;76.64
20889;BME280;10604;51.976;7.594;2022-12-29T09:27:14;99515.94;;;11.05;75.31
20889;BME280;10604;51.976;7.594;2022-12-29T09:29:40;99533.03;;;10.98;75.33
20889;BME280;10604;51.976;7.594;2022-12-29T09:32:05;99530.06;;;11.04;74.18
20889;BME280;10604;51.976;7.594;2022-12-29T09:34:31;99526.19;;;11.11;74.50
20889;BME280;10604;51.976;7.594;2022-12-29T09:36:56;99524.66;;;11.07;75.07
20889;BME280;10604;51.976;7.594;2022-12-29T09:39:22;99522.00;;;11.07;75.07
20889;BME280;10604;51.976;7.594;2022-12-29T09:42:01;99526.03;;;11.14;74.42
20889;BME280;10604;51.976;7.594;2022-12-29T09:47:11;99529.59;;;11.13;74.34
20889;BME280;10604;51.976;7.594;2022-12-29T09:49:45;99539.91;;;11.35;72.83
20889;BME280;10604;51.976;7.594;2022-12-29T09:52:20;99542.03;;;11.44;73.51
20889;BME280;10604;51.976;7.594;2022-12-29T09:54:53;99532.19;;;11.30;74.86
20889;BME280;10604;51.976;7.594;2022-12-29T09:57:26;99550.66;;;11.48;73.79
20889;BME280;10604;51.976;7.594;2022-12-29T09:59:57;99548.00;;;11.48;75.04
20889;BME280;10604;51.976;7.594;2022-12-29T10:02:39;99541.63;;;11.52;75.23
20889;BME280;10604;51.976;7.594;2022-12-29T10:07:46;99549.13;;;11.59;75.19
20889;BME280;10604;51.976;7.594;2022-12-29T10:10:30;99544.72;;;11.60;74.36
20889;BME280;10604;51.976;7.594;2022-12-29T10:13:13;99548.56;;;11.70;73.65
20889;BME280;10604;51.976;7.594;2022-12-29T10:15:52;99551.03;;;11.73;74.30
20889;BME280;10604;51.976;7.594;2022-12-29T10:23:45;99547.34;;;11.77;72.84
20889;BME280;10604;51.976;7.594;2022-12-29T10:26:19;99539.41;;;11.77;73.04
20889;BME280;10604;51.976;7.594;2022-12-29T10:29:09;99535.50;;;11.84;72.84
20889;BME280;10604;51.976;7.594;2022-12-29T10:31:43;99523.81;;;11.88;72.18
20889;BME280;10604;51.976;7.594;2022-12-29T10:34:25;99536.28;;;11.86;73.83
20889;BME280;10604;51.976;7.594;2022-12-29T10:36:58;99540.78;;;11.84;72.92
20889;BME280;10604;51.976;7.594;2022-12-29T10:39:31;99542.84;;;11.79;73.30
20889;BME280;10604;51.976;7.594;2022-12-29T10:42:27;99546.59;;;11.73;74.65
20889;BME280;10604;51.976;7.594;2022-12-29T10:44:54;99534.91;;;11.79;74.34
20889;BME280;10604;51.976;7.594;2022-12-29T10:47:27;99540.88;;;11.83;73.99
20889;BME280;10604;51.976;7.594;2022-12-29T10:49:55;99530.88;;;11.72;76.63
20889;BME280;10604;51.976;7.594;2022-12-29T10:52:24;99549.72;;;11.82;74.28
20889;BME280;10604;51.976;7.594;2022-12-29T10:54:58;99538.91;;;11.86;73.67
20889;BME280;10604;51.976;7.594;2022-12-29T10:57:33;99530.28;;;11.83;74.67
20889;BME280;10604;51.976;7.594;2022-12-29T10:59:59;99536.94;;;11.90;74.00
20889;BME280;10604;51.976;7.594;2022-12-29T11:08:04;99532.38;;;11.93;73.84
20889;BME280;10604;51.976;7.594;2022-12-29T11:13:05;99542.25;;;12.05;73.26
20889;BME280;10604;51.976;7.594;2022-12-29T11:15:49;99539.69;;;12.20;72.93
20889;BME280;10604;51.976;7.594;2022-12-29T11:18:32;99525.88;;;12.14;71.72
20889;BME280;10604;51.976;7.594;2022-12-29T11:21:00;99531.69;;;12.05;72.62
20889;BME280;10604;51.976;7.594;2022-12-29T11:23:39;99533.19;;;12.09;72.00
20889;BME280;10604;51.976;7.594;2022-12-29T11:28:44;99542.25;;;12.05;71.68
20889;BME280;10604;51.976;7.594;2022-12-29T11:31:10;99539.03;;;12.00;71.48
20889;BME280;10604;51.976;7.594;2022-12-29T11:33:40;99541.13;;;12.09;72.69
20889;BME280;10604;51.976;7.594;2022-12-29T11:36:17;99541.91;;;12.11;71.42
20889;BME280;10604;51.976;7.594;2022-12-29T11:38:53;99533.19;;;12.09;71.12
20889;BME280;10604;51.976;7.594;2022-12-29T11:41:27;99553.34;;;12.12;70.50
20889;BME280;10604;51.976;7.594;2022-12-29T11:43:55;99548.22;;;12.25;70.35
20889;BME280;10604;51.976;7.594;2022-12-29T11:46:27;99556.72;;;12.30;69.57
20889;BME280;10604;51.976;7.594;2022-12-29T11:48:53;99562.00;;;12.30;70.42
20889;BME280;10604;51.976;7.594;2022-12-29T11:51:26;99551.19;;;12.19;71.54
20889;BME280;10604;51.976;7.594;2022-12-29T11:53:56;99563.81;;;12.13;70.54
20889;BME280;10604;51.976;7.594;2022-12-29T11:56:42;99579.69;;;12.13;70.30
20889;BME280;10604;51.976;7.594;2022-12-29T12:01:52;99578.91;;;12.11;71.46
20889;BME280;10604;51.976;7.594;2022-12-29T12:04:21;99593.41;;;12.04;70.77
20889;BME280;10604;51.976;7.594;2022-12-29T12:09:48;99583.50;;;11.92;72.52
20889;BME280;10604;51.976;7.594;2022-12-29T12:12:44;99602.41;;;11.85;72.38
20889;BME280;10604;51.976;7.594;2022-12-29T12:16:22;99607.63;;;11.86;72.63
20889;BME280;10604;51.976;7.594;2022-12-29T12:18:20;99618.94;;;11.88;72.47
20889;BME280;10604;51.976;7.594;2022-12-29T12:20:57;99618.78;;;11.91;73.02
20889;BME280;10604;51.976;7.594;2022-12-29T12:23:53;99605.13;;;11.83;72.12
20889;BME280;10604;51.976;7.594;2022-12-29T12:26:33;99610.41;;;11.83;72.73
20889;BME280;10604;51.976;7.594;2022-12-29T12:29:17;99612.28;;;11.81;73.45
20889;BME280;10604;51.976;7.594;2022-12-29T12:31:52;99646.00;;;11.76;74.42
20889;BME280;10604;51.976;7.594;2022-12-29T12:34:26;99634.19;;;11.83;72.94
20889;BME280;10604;51.976;7.594;2022-12-29T12:51:29;99634.13;;;11.85;72.88
20889;BME280;10604;51.976;7.594;2022-12-29T12:59:53;99664.50;;;11.76;73.65
20889;BME280;10604;51.976;7.594;2022-12-29T13:02:46;99654.31;;;11.68;74.49
20889;BME280;10604;51.976;7.594;2022-12-29T13:15:57;99667.59;;;11.67;75.77
20889;BME280;10604;51.976;7.594;2022-12-29T13:21:19;99682.53;;;11.51;75.43
20889;BME280;10604;51.976;7.594;2022-12-29T13:26:41;99683.22;;;11.54;75.21
20889;BME280;10604;51.976;7.594;2022-12-29T13:29:37;99692.25;;;11.50;74.49
20889;BME280;10604;51.976;7.594;2022-12-29T13:37:53;99688.28;;;11.42;75.62
20889;BME280;10604;51.976;7.594;2022-12-29T13:40:23;99696.34;;;11.38;74.96
20889;BME280;10604;51.976;7.594;2022-12-29T13:42:49;99716.22;;;11.46;74.62
20889;BME280;10604;51.976;7.594;2022-12-29T13:45:26;99712.66;;;11.47;75.25
20889;BME280;10604;51.976;7.594;2022-12-29T13:48:04;99705.09;;;11.39;76.29
20889;BME280;10604;51.976;7.594;2022-12-29T13:50:35;99706.13;;;11.36;76.71
20889;BME280;10604;51.976;7.594;2022-12-29T13:56:12;99711.81;;;11.10;77.27
20889;BME280;10604;51.976;7.594;2022-12-29T14:01:43;99732.00;;;11.11;78.72
20889;BME280;10604;51.976;7.594;2022-12-29T14:04:14;99729.44;;;11.10;77.74
20889;BME280;10604;51.976;7.594;2022-12-29T14:06:40;99727.66;;;11.10;78.44
20889;BME280;10604;51.976;7.594;2022-12-29T14:11:57;99737.28;;;11.11;78.38
20889;BME280;10604;51.976;7.594;2022-12-29T14:14:25;99740.56;;;11.16;78.72
20889;BME280;10604;51.976;7.594;2022-12-29T14:16:52;99741.50;;;11.15;78.84
20889;BME280;10604;51.976;7.594;2022-12-29T14:19:30;99740.56;;;11.16;77.36
20889;BME280;10604;51.976;7.594;2022-12-29T14:22:02;99750.03;;;11.20;77.29
20889;BME280;10604;51.976;7.594;2022-12-29T14:26:56;99743.84;;;11.21;76.88
20889;BME280;10604;51.976;7.594;2022-12-29T14:31:50;99745.38;;;11.25;75.48
20889;BME280;10604;51.976;7.594;2022-12-29T14:34:27;99748.41;;;11.18;75.91
20889;BME280;10604;51.976;7.594;2022-12-29T14:44:34;99755.94;;;11.25;75.24
20889;BME280;10604;51.976;7.594;2022-12-29T14:47:18;99758.94;;;11.36;74.90
20889;BME280;10604;51.976;7.594;2022-12-29T14:49:45;99758.28;;;11.31;73.64
20889;BME280;10604;51.976;7.594;2022-12-29T14:52:29;99769.78;;;11.30;73.46
20889;BME280;10604;51.976;7.594;2022-12-29T14:55:29;99760.78;;;11.34;73.36
20889;BME280;10604;51.976;7.594;2022-12-29T14:58:02;99767.78;;;11.35;72.79
20889;BME280;10604;51.976;7.594;2022-12-29T15:00:33;99770.06;;;11.24;73.52
20889;BME280;10604;51.976;7.594;2022-12-29T15:03:20;99768.97;;;11.11;73.78
20889;BME280;10604;51.976;7.594;2022-12-29T15:05:50;99773.81;;;11.20;73.10
20889;BME280;10604;51.976;7.594;2022-12-29T15:08:19;99771.38;;;11.16;73.52
20889;BME280;10604;51.976;7.594;2022-12-29T15:10:56;99772.69;;;11.07;74.02
20889;BME280;10604;51.976;7.594;2022-12-29T15:13:33;99774.84;;;11.16;73.08
20889;BME280;10604;51.976;7.594;2022-12-29T15:15:59;99781.09;;;11.15;73.68
20889;BME280;10604;51.976;7.594;2022-12-29T15:18:33;99770.38;;;11.18;73.22
20889;BME280;10604;51.976;7.594;2022-12-29T15:21:04;99768.03;;;11.12;73.93
20889;BME280;10604;51.976;7.594;2022-12-29T15:23:32;99773.06;;;11.17;74.37
20889;BME280;10604;51.976;7.594;2022-12-29T15:28:26;99778.88;;;11.06;74.75
20889;BME280;10604;51.976;7.594;2022-12-29T15:31:02;99784.22;;;11.05;74.52